createdAt,value
2018-11-04T00:01:50.109Z,12.93
2018-11-04T00:04:17.965Z,12.23
2018-11-04T00:06:46.016Z,12.97
2018-11-04T00:09:15.998Z,11.77
2018-11-04T00:11:43.765Z,12.10
2018-11-04T00:14:11.627Z,12.40
2018-11-04T00:16:39.266Z,12.93
2018-11-04T00:19:07.015Z,15.17
2018-11-04T00:21:34.717Z,14.70
2018-11-04T00:24:03.104Z,15.17
2018-11-04T00:26:30.737Z,14.60
2018-11-04T00:28:58.539Z,14.20
2018-11-04T00:31:26.209Z,15.73
2018-11-04T00:33:53.915Z,14.17
2018-11-04T00:36:21.590Z,13.83
2018-11-04T00:38:49.292Z,13.10
2018-11-04T00:41:16.984Z,13.23
2018-11-04T00:43:44.694Z,13.20
2018-11-04T00:46:12.569Z,15.23
2018-11-04T00:48:40.221Z,14.60
2018-11-04T00:51:07.863Z,12.23
2018-11-04T00:53:35.492Z,13.93
2018-11-04T00:56:03.102Z,14.27
2018-11-04T00:58:30.741Z,12.60
2018-11-04T01:00:58.362Z,14.40
2018-11-04T01:03:25.984Z,14.83
2018-11-04T01:05:53.578Z,13.37
2018-11-04T01:08:21.342Z,14.00
2018-11-04T01:10:48.903Z,12.37
2018-11-04T01:13:16.651Z,14.47
2018-11-04T01:15:44.271Z,14.20
2018-11-04T01:18:11.849Z,13.23
2018-11-04T01:20:39.425Z,13.70
2018-11-04T01:23:07.085Z,12.63
2018-11-04T01:25:34.706Z,13.10
2018-11-04T01:28:02.353Z,13.50
2018-11-04T01:30:30.202Z,13.93
2018-11-04T01:32:57.654Z,12.17
2018-11-04T01:35:25.325Z,11.87
2018-11-04T01:37:52.917Z,13.33
2018-11-04T01:40:20.504Z,13.30
2018-11-04T01:42:48.049Z,11.20
2018-11-04T01:45:15.665Z,12.00
2018-11-04T01:47:43.279Z,11.60
2018-11-04T01:50:12.506Z,12.87
2018-11-04T01:52:40.179Z,10.70
2018-11-04T01:55:08.356Z,11.00
2018-11-04T01:57:36.197Z,11.37
2018-11-04T02:00:04.547Z,11.30
2018-11-04T02:02:32.265Z,10.83
2018-11-04T02:04:59.964Z,12.03
2018-11-04T02:07:27.678Z,10.30
2018-11-04T02:09:55.460Z,9.67
2018-11-04T02:12:23.140Z,11.50
2018-11-04T02:14:50.790Z,11.13
2018-11-04T02:17:18.547Z,9.10
2018-11-04T02:19:46.357Z,10.80
2018-11-04T02:22:13.952Z,10.40
2018-11-04T02:24:41.637Z,9.40
2018-11-04T02:27:09.261Z,10.20
2018-11-04T02:29:36.985Z,11.37
2018-11-04T02:32:05.010Z,9.60
2018-11-04T02:34:32.676Z,10.50
2018-11-04T02:37:00.334Z,8.90
2018-11-04T02:39:28.036Z,10.60
2018-11-04T02:41:55.730Z,9.30
2018-11-04T02:44:23.365Z,9.53
2018-11-04T02:46:51.023Z,10.30
2018-11-04T02:49:18.635Z,8.67
2018-11-04T02:51:46.283Z,10.03
2018-11-04T02:54:13.902Z,9.50
2018-11-04T02:56:41.528Z,9.30
2018-11-04T02:59:09.126Z,8.83
2018-11-04T03:01:36.732Z,8.43
2018-11-04T03:04:04.513Z,8.47
2018-11-04T03:06:32.132Z,8.23
2018-11-04T03:08:59.739Z,9.00
2018-11-04T03:11:27.349Z,9.90
2018-11-04T03:13:55.059Z,9.13
2018-11-04T03:16:22.678Z,9.40
2018-11-04T03:18:50.261Z,9.53
2018-11-04T03:21:18.244Z,7.73
2018-11-04T03:23:45.787Z,8.37
2018-11-04T03:26:13.428Z,7.63
2018-11-04T03:28:41.116Z,7.30
2018-11-04T03:31:08.802Z,8.63
2018-11-04T03:33:36.412Z,9.00
2018-11-04T03:36:04.058Z,7.90
2018-11-04T03:38:31.628Z,9.00
2018-11-04T03:40:59.265Z,8.50
2018-11-04T03:43:26.819Z,7.63
2018-11-04T03:45:54.450Z,9.00
2018-11-04T03:48:22.031Z,8.70
2018-11-04T03:50:49.629Z,8.40
2018-11-04T03:53:17.202Z,8.77
2018-11-04T03:55:44.856Z,8.37
2018-11-04T03:58:12.546Z,7.77
2018-11-04T04:00:40.136Z,8.93
2018-11-04T04:03:07.726Z,8.33
2018-11-04T04:05:35.342Z,7.77
2018-11-04T04:08:02.943Z,7.13
2018-11-04T04:10:30.548Z,8.80
2018-11-04T04:12:58.143Z,9.50
2018-11-04T04:15:25.878Z,9.90
2018-11-04T04:17:53.468Z,10.97
2018-11-04T04:20:21.072Z,10.47
2018-11-04T04:22:48.721Z,10.50
2018-11-04T04:25:16.383Z,8.60
2018-11-04T04:27:44.176Z,8.93
2018-11-04T04:30:12.365Z,10.67
2018-11-04T04:32:40.030Z,8.80
2018-11-04T04:35:08.426Z,9.20
2018-11-04T04:37:36.043Z,9.30
2018-11-04T04:40:03.701Z,9.20
2018-11-04T04:42:31.289Z,10.43
2018-11-04T04:44:58.903Z,8.43
2018-11-04T04:47:26.498Z,9.57
2018-11-04T04:49:54.121Z,9.67
2018-11-04T04:52:21.730Z,9.60
2018-11-04T04:54:49.364Z,9.70
2018-11-04T04:57:17.020Z,10.10
2018-11-04T04:59:44.695Z,9.40
2018-11-04T05:02:12.351Z,9.13
2018-11-04T05:04:40.010Z,11.03
2018-11-04T05:07:07.694Z,9.77
2018-11-04T05:09:35.342Z,9.10
2018-11-04T05:12:02.987Z,7.97
2018-11-04T05:14:30.641Z,9.30
2018-11-04T05:16:58.285Z,8.90
2018-11-04T05:19:25.917Z,8.93
2018-11-04T05:21:53.541Z,9.40
2018-11-04T05:24:21.166Z,7.70
2018-11-04T05:26:48.766Z,9.50
2018-11-04T05:29:16.345Z,9.20
2018-11-04T05:31:43.997Z,9.43
2018-11-04T05:34:11.645Z,9.00
2018-11-04T05:36:39.294Z,8.30
2018-11-04T05:39:07.546Z,8.67
2018-11-04T05:41:35.141Z,9.10
2018-11-04T05:44:02.741Z,10.07
2018-11-04T05:46:30.403Z,10.37
2018-11-04T05:48:58.021Z,9.17
2018-11-04T05:51:25.721Z,9.10
2018-11-04T05:53:53.389Z,8.67
2018-11-04T05:56:21.134Z,9.40
2018-11-04T05:58:48.756Z,7.07
2018-11-04T06:01:16.363Z,10.50
2018-11-04T06:03:43.991Z,7.93
2018-11-04T06:06:11.689Z,9.63
2018-11-04T06:08:39.319Z,8.90
2018-11-04T06:11:06.936Z,9.20
2018-11-04T06:13:34.551Z,8.40
2018-11-04T06:16:02.171Z,8.80
2018-11-04T06:18:29.864Z,9.30
2018-11-04T06:20:57.498Z,8.70
2018-11-04T06:23:25.136Z,8.93
2018-11-04T06:25:52.763Z,9.00
2018-11-04T06:28:20.414Z,8.30
2018-11-04T06:30:48.065Z,8.50
2018-11-04T06:33:15.654Z,9.20
2018-11-04T06:35:43.322Z,8.03
2018-11-04T06:38:10.950Z,8.43
2018-11-04T06:40:38.526Z,8.00
2018-11-04T06:45:40.174Z,9.07
2018-11-04T06:48:07.806Z,7.90
2018-11-04T06:50:35.398Z,9.93
2018-11-04T06:53:03.126Z,9.80
2018-11-04T06:55:30.728Z,10.87
2018-11-04T06:57:58.416Z,8.50
2018-11-04T07:00:26.029Z,9.20
2018-11-04T07:02:53.742Z,8.03
2018-11-04T07:05:21.295Z,8.13
2018-11-04T07:07:48.889Z,9.67
2018-11-04T07:10:16.522Z,9.13
2018-11-04T07:12:44.155Z,10.37
2018-11-04T07:15:11.706Z,9.70
2018-11-04T07:17:39.284Z,9.57
2018-11-04T07:20:07.378Z,9.33
2018-11-04T07:22:34.848Z,10.47
2018-11-04T07:25:02.457Z,10.33
2018-11-04T07:27:30.093Z,11.50
2018-11-04T07:29:57.715Z,9.80
2018-11-04T07:32:25.390Z,9.17
2018-11-04T07:34:52.919Z,11.53
2018-11-04T07:37:20.583Z,10.50
2018-11-04T07:39:48.284Z,10.73
2018-11-04T07:42:19.132Z,11.60
2018-11-04T07:44:46.919Z,10.67
2018-11-04T07:47:14.850Z,10.47
2018-11-04T07:49:42.418Z,9.60
2018-11-04T07:52:10.073Z,11.50
2018-11-04T07:54:37.724Z,11.93
2018-11-04T07:57:05.470Z,10.90
2018-11-04T07:59:33.046Z,11.60
2018-11-04T08:02:00.868Z,10.93
2018-11-04T08:04:28.663Z,11.80
2018-11-04T08:06:56.396Z,10.97
2018-11-04T08:09:24.049Z,10.13
2018-11-04T08:11:51.671Z,11.23
2018-11-04T08:14:19.259Z,13.23
2018-11-04T08:16:46.948Z,11.80
2018-11-04T08:19:14.750Z,10.47
2018-11-04T08:21:42.370Z,11.97
2018-11-04T08:24:10.076Z,8.77
2018-11-04T08:26:37.799Z,9.77
2018-11-04T08:29:09.050Z,12.50
2018-11-04T08:31:38.309Z,10.40
2018-11-04T08:34:06.110Z,11.50
2018-11-04T08:36:33.813Z,11.17
2018-11-04T08:39:04.265Z,12.53
2018-11-04T08:41:36.837Z,11.10
2018-11-04T08:44:12.109Z,12.03
2018-11-04T08:46:43.474Z,12.33
2018-11-04T08:49:13.801Z,13.80
2018-11-04T08:51:44.461Z,12.60
2018-11-04T08:54:24.124Z,12.20
2018-11-04T08:56:54.594Z,12.97
2018-11-04T08:59:31.276Z,11.40
2018-11-04T09:02:22.387Z,14.20
2018-11-04T09:07:27.298Z,12.87
2018-11-04T09:12:37.778Z,14.10
2018-11-04T09:15:06.450Z,15.00
2018-11-04T09:17:45.133Z,14.73
2018-11-04T09:20:19.392Z,14.40
2018-11-04T09:22:54.161Z,15.20
2018-11-04T09:25:24.185Z,16.63
2018-11-04T09:27:58.344Z,16.17
2018-11-04T09:30:26.038Z,15.80
2018-11-04T09:32:59.267Z,17.77
2018-11-04T09:35:27.795Z,15.93
2018-11-04T09:37:55.413Z,16.63
2018-11-04T09:40:28.139Z,15.87
2018-11-04T09:42:57.397Z,16.50
2018-11-04T09:45:25.158Z,16.00
2018-11-04T09:47:52.983Z,18.27
2018-11-04T09:50:20.622Z,17.50
2018-11-04T09:52:49.843Z,16.50
2018-11-04T09:55:22.951Z,18.27
2018-11-04T09:57:52.401Z,20.13
2018-11-04T10:00:23.071Z,18.83
2018-11-04T10:02:58.049Z,18.60
2018-11-04T10:05:40.033Z,19.03
2018-11-04T10:08:07.983Z,20.20
2018-11-04T10:10:42.765Z,19.63
2018-11-04T10:13:12.311Z,19.03
2018-11-04T10:15:48.867Z,23.17
2018-11-04T10:18:19.184Z,19.80
2018-11-04T10:20:51.932Z,20.60
2018-11-04T10:23:27.526Z,20.37
2018-11-04T10:25:58.637Z,20.53
2018-11-04T10:28:39.298Z,21.60
2018-11-04T10:31:07.237Z,19.90
2018-11-04T10:33:37.190Z,21.60
2018-11-04T10:36:10.103Z,19.27
2018-11-04T10:38:39.281Z,23.63
2018-11-04T10:41:09.454Z,20.63
2018-11-04T10:43:38.297Z,21.23
2018-11-04T10:46:06.878Z,21.70
2018-11-04T10:48:37.571Z,22.40
2018-11-04T10:51:07.937Z,20.70
2018-11-04T10:53:38.847Z,22.47
2018-11-04T10:56:09.356Z,22.50
2018-11-04T10:58:38.709Z,19.87
2018-11-04T11:01:11.983Z,21.03
2018-11-04T11:03:42.443Z,19.10
2018-11-04T11:06:16.735Z,19.90
2018-11-04T11:08:47.397Z,22.47
2018-11-04T11:11:21.242Z,21.67
2018-11-04T11:13:53.570Z,21.30
2018-11-04T11:16:28.651Z,19.40
2018-11-04T11:19:00.052Z,19.50
2018-11-04T11:21:31.216Z,21.40
2018-11-04T11:24:02.651Z,19.07
2018-11-04T11:26:43.489Z,21.97
2018-11-04T11:29:12.910Z,19.80
2018-11-04T11:31:43.205Z,20.90
2018-11-04T11:34:15.743Z,19.43
2018-11-04T11:36:46.133Z,19.80
2018-11-04T11:39:17.551Z,19.63
2018-11-04T11:41:48.917Z,20.07
2018-11-04T11:44:31.017Z,18.73
2018-11-04T11:49:37.564Z,20.47
2018-11-04T11:52:05.460Z,17.70
2018-11-04T11:54:35.036Z,20.50
2018-11-04T11:57:03.517Z,20.23
2018-11-04T11:59:31.981Z,18.13
2018-11-04T12:02:05.664Z,20.90
2018-11-04T12:04:39.612Z,19.87
2018-11-04T12:07:09.167Z,20.47
2018-11-04T12:09:36.980Z,17.90
2018-11-04T12:12:05.340Z,21.97
2018-11-04T12:14:33.397Z,20.60
2018-11-04T12:17:01.177Z,19.13
2018-11-04T12:19:32.961Z,18.57
2018-11-04T12:22:02.485Z,20.90
2018-11-04T12:24:33.741Z,20.37
2018-11-04T12:27:02.986Z,20.60
2018-11-04T12:29:30.800Z,21.00
2018-11-04T12:32:11.692Z,17.40
2018-11-04T12:34:43.363Z,19.80
2018-11-04T12:37:13.054Z,20.63
2018-11-04T12:39:41.209Z,23.20
2018-11-04T12:42:09.876Z,23.37
2018-11-04T12:44:38.118Z,21.40
2018-11-04T12:47:09.115Z,17.63
2018-11-04T12:49:36.735Z,20.60
2018-11-04T12:52:05.301Z,21.27
2018-11-04T12:54:34.400Z,22.90
2018-11-04T12:57:05.708Z,22.07
2018-11-04T12:59:42.627Z,21.07
2018-11-04T13:02:11.892Z,22.20
2018-11-04T13:04:46.729Z,22.53
2018-11-04T13:07:15.066Z,19.63
2018-11-04T13:09:49.553Z,21.37
2018-11-04T13:12:21.988Z,21.73
2018-11-04T13:15:11.223Z,23.50
2018-11-04T13:17:45.786Z,20.63
2018-11-04T13:20:13.444Z,23.40
2018-11-04T13:22:43.161Z,24.87
2018-11-04T13:25:15.020Z,26.07
2018-11-04T13:27:43.107Z,21.70
2018-11-04T13:30:13.419Z,22.30
2018-11-04T13:32:44.978Z,22.00
2018-11-04T13:35:15.092Z,22.37
2018-11-04T13:37:46.107Z,23.50
2018-11-04T13:40:20.372Z,23.40
2018-11-04T13:43:02.587Z,23.77
2018-11-04T13:45:35.674Z,28.20
2018-11-04T13:48:10.675Z,23.43
2018-11-04T13:50:45.095Z,23.10
2018-11-04T13:53:16.300Z,24.30
2018-11-04T13:55:51.581Z,24.70
2018-11-04T13:58:21.903Z,22.20
2018-11-04T14:00:49.733Z,25.60
2018-11-04T14:03:17.414Z,23.03
2018-11-04T14:05:45.159Z,23.57
2018-11-04T14:08:12.922Z,26.47
2018-11-04T14:10:40.631Z,23.90
2018-11-04T14:13:08.356Z,23.47
2018-11-04T14:15:36.029Z,24.43
2018-11-04T14:18:03.754Z,25.67
2018-11-04T14:20:31.382Z,23.93
2018-11-04T14:22:59.105Z,25.73
2018-11-04T14:25:26.987Z,22.63
2018-11-04T14:27:54.713Z,23.30
2018-11-04T14:30:22.346Z,22.90
2018-11-04T14:32:50.076Z,25.07
2018-11-04T14:35:17.726Z,24.77
2018-11-04T14:37:45.600Z,21.90
2018-11-04T14:40:14.603Z,22.67
2018-11-04T14:42:43.003Z,24.83
2018-11-04T14:45:10.867Z,23.77
2018-11-04T14:47:39.123Z,22.87
2018-11-04T14:50:08.391Z,22.53
2018-11-04T14:52:36.115Z,23.30
2018-11-04T14:55:03.910Z,24.13
2018-11-04T14:57:31.572Z,23.07
2018-11-04T14:59:59.302Z,21.87
2018-11-04T15:02:27.051Z,24.07
2018-11-04T15:04:54.698Z,22.80
2018-11-04T15:07:22.323Z,22.13
2018-11-04T15:09:49.993Z,19.47
2018-11-04T15:12:17.700Z,21.23
2018-11-04T15:14:45.406Z,21.63
2018-11-04T15:17:13.165Z,23.13
2018-11-04T15:19:40.895Z,20.33
2018-11-04T15:22:08.529Z,21.53
2018-11-04T15:24:36.215Z,20.37
2018-11-04T15:27:09.833Z,20.53
2018-11-04T15:29:39.753Z,21.10
2018-11-04T15:32:16.148Z,18.83
2018-11-04T15:34:54.648Z,19.40
2018-11-04T15:37:22.598Z,21.03
2018-11-04T15:39:53.026Z,19.00
2018-11-04T15:42:22.644Z,20.80
2018-11-04T15:44:51.399Z,18.73
2018-11-04T15:47:22.399Z,18.70
2018-11-04T15:49:50.128Z,20.10
2018-11-04T15:52:21.272Z,20.80
2018-11-04T15:54:49.017Z,20.03
2018-11-04T15:57:17.199Z,18.10
2018-11-04T15:59:47.600Z,19.00
2018-11-04T16:02:16.535Z,20.30
2018-11-04T16:04:50.128Z,17.80
2018-11-04T16:07:20.668Z,18.63
2018-11-04T16:09:48.427Z,16.33
2018-11-04T16:12:16.212Z,18.60
2018-11-04T16:14:43.946Z,17.33
2018-11-04T16:17:11.651Z,20.47
2018-11-04T16:19:39.320Z,17.30
2018-11-04T16:22:08.137Z,18.33
2018-11-04T16:24:47.022Z,18.03
2018-11-04T16:27:22.104Z,17.23
2018-11-04T16:29:52.659Z,18.10
2018-11-04T16:32:23.683Z,17.40
2018-11-04T16:34:57.370Z,19.47
2018-11-04T16:37:31.590Z,19.63
2018-11-04T16:39:59.918Z,17.20
2018-11-04T16:42:28.946Z,18.60
2018-11-04T16:45:03.576Z,18.23
2018-11-04T16:47:33.136Z,19.57
2018-11-04T16:50:01.907Z,19.97
2018-11-04T16:52:30.171Z,22.53
2018-11-04T16:54:58.213Z,20.23
2018-11-04T16:57:26.249Z,20.10
2018-11-04T16:59:55.487Z,19.60
2018-11-04T17:02:26.035Z,20.93
2018-11-04T17:04:53.784Z,18.80
2018-11-04T17:07:21.435Z,19.57
2018-11-04T17:10:00.812Z,18.57
2018-11-04T17:12:29.843Z,18.27
2018-11-04T17:14:59.967Z,18.80
2018-11-04T17:17:28.839Z,18.90
2018-11-04T17:19:59.010Z,20.10
2018-11-04T17:22:26.901Z,19.43
2018-11-04T17:24:58.139Z,21.13
2018-11-04T17:27:27.005Z,23.63
2018-11-04T17:29:54.771Z,20.63
2018-11-04T17:32:25.049Z,24.00
2018-11-04T17:34:57.036Z,21.23
2018-11-04T17:37:26.399Z,20.10
2018-11-04T17:39:54.523Z,21.80
2018-11-04T17:42:23.044Z,20.20
2018-11-04T17:44:50.752Z,22.30
2018-11-04T17:47:22.829Z,21.50
2018-11-04T17:49:50.541Z,22.30
2018-11-04T17:52:18.246Z,23.40
2018-11-04T17:54:45.872Z,24.23
2018-11-04T17:57:15.168Z,22.80
2018-11-04T17:59:43.298Z,20.77
2018-11-04T18:02:10.963Z,23.30
2018-11-04T18:04:38.753Z,23.63
2018-11-04T18:07:07.296Z,21.97
2018-11-04T18:09:35.110Z,24.53
2018-11-04T18:12:05.591Z,22.90
2018-11-04T18:14:33.639Z,21.83
2018-11-04T18:17:01.386Z,21.60
2018-11-04T18:19:29.268Z,24.60
2018-11-04T18:21:56.915Z,22.30
2018-11-04T18:24:24.583Z,22.23
2018-11-04T18:26:52.302Z,21.27
2018-11-04T18:29:19.872Z,23.87
2018-11-04T18:31:47.596Z,24.53
2018-11-04T18:34:31.874Z,23.77
2018-11-04T18:36:59.608Z,24.10
2018-11-04T18:39:27.308Z,22.60
2018-11-04T18:41:55.005Z,23.83
2018-11-04T18:44:22.730Z,21.03
2018-11-04T18:46:50.442Z,25.17
2018-11-04T18:49:18.079Z,23.17
2018-11-04T18:51:45.839Z,23.00
2018-11-04T18:54:13.647Z,22.83
2018-11-04T18:56:41.313Z,23.17
2018-11-04T18:59:09.176Z,23.50
2018-11-04T19:01:36.782Z,24.90
2018-11-04T19:04:04.465Z,22.50
2018-11-04T19:06:32.182Z,24.13
2018-11-04T19:09:00.078Z,24.83
2018-11-04T19:11:27.915Z,26.63
2018-11-04T19:13:55.643Z,23.30
2018-11-04T19:16:23.423Z,22.00
2018-11-04T19:18:51.518Z,24.13
2018-11-04T19:21:19.213Z,23.60
2018-11-04T19:23:46.857Z,23.70
2018-11-04T19:26:14.491Z,23.50
2018-11-04T19:28:42.144Z,23.50
2018-11-04T19:31:09.962Z,24.10
2018-11-04T19:33:37.569Z,25.33
2018-11-04T19:36:05.338Z,24.83
2018-11-04T19:38:33.072Z,23.77
2018-11-04T19:41:00.737Z,24.77
2018-11-04T19:43:28.520Z,24.30
2018-11-04T19:45:56.225Z,24.33
2018-11-04T19:48:24.129Z,27.20
2018-11-04T19:50:51.811Z,23.10
2018-11-04T19:53:19.567Z,24.43
2018-11-04T19:55:47.214Z,23.97
2018-11-04T19:58:14.915Z,21.83
2018-11-04T20:00:42.601Z,23.77
2018-11-04T20:03:10.263Z,22.73
2018-11-04T20:05:38.208Z,22.00
2018-11-04T20:08:06.055Z,22.57
2018-11-04T20:10:33.990Z,24.40
2018-11-04T20:13:07.017Z,22.27
2018-11-04T20:15:34.742Z,23.07
2018-11-04T20:18:06.689Z,23.20
2018-11-04T20:20:34.404Z,21.77
2018-11-04T20:23:02.767Z,22.23
2018-11-04T20:25:35.788Z,22.07
2018-11-04T20:28:03.447Z,24.00
2018-11-04T20:30:31.065Z,22.07
2018-11-04T20:33:03.968Z,22.20
2018-11-04T20:35:32.088Z,21.80
2018-11-04T20:38:00.809Z,22.50
2018-11-04T20:40:34.005Z,22.70
2018-11-04T20:43:01.830Z,21.90
2018-11-04T20:45:29.742Z,23.67
2018-11-04T20:48:02.612Z,22.87
2018-11-04T20:50:35.642Z,23.43
2018-11-04T20:53:03.387Z,22.87
2018-11-04T20:55:36.262Z,23.30
2018-11-04T20:58:04.112Z,22.50
2018-11-04T21:00:31.788Z,24.20
2018-11-04T21:02:59.486Z,22.30
2018-11-04T21:05:27.187Z,24.50
2018-11-04T21:07:55.046Z,25.07
2018-11-04T21:10:22.681Z,21.07
2018-11-04T21:12:50.516Z,24.23
2018-11-04T21:15:18.476Z,24.27
2018-11-04T21:17:49.734Z,22.97
2018-11-04T21:20:17.535Z,22.13
2018-11-04T21:22:45.268Z,21.90
2018-11-04T21:25:12.937Z,23.00
2018-11-04T21:27:40.727Z,22.67
2018-11-04T21:30:09.305Z,24.30
2018-11-04T21:32:36.987Z,23.27
2018-11-04T21:35:05.197Z,22.60
2018-11-04T21:37:33.124Z,25.17
2018-11-04T21:40:00.925Z,23.17
2018-11-04T21:42:28.710Z,25.37
2018-11-04T21:44:56.300Z,23.90
2018-11-04T21:47:24.032Z,23.47
2018-11-04T21:49:51.610Z,25.03
2018-11-04T21:52:19.765Z,25.13
2018-11-04T21:54:50.208Z,25.80
2018-11-04T21:57:17.835Z,24.00
2018-11-04T21:59:45.408Z,25.03
2018-11-04T22:02:13.129Z,25.23
2018-11-04T22:04:40.766Z,25.07
2018-11-04T22:07:08.418Z,26.03
2018-11-04T22:09:36.043Z,24.97
2018-11-04T22:12:03.711Z,24.03
2018-11-04T22:14:31.463Z,25.23
2018-11-04T22:16:59.073Z,25.20
2018-11-04T22:19:26.733Z,25.87
2018-11-04T22:21:54.381Z,24.77
2018-11-04T22:24:22.110Z,24.27
2018-11-04T22:26:49.725Z,25.03
2018-11-04T22:29:17.340Z,26.77
2018-11-04T22:31:44.927Z,27.00
2018-11-04T22:34:12.693Z,28.43
2018-11-04T22:36:40.500Z,27.40
2018-11-04T22:39:08.742Z,27.63
2018-11-04T22:41:36.498Z,27.97
2018-11-04T22:44:04.265Z,28.10
2018-11-04T22:46:31.899Z,26.70
2018-11-04T22:48:59.582Z,28.90
2018-11-04T22:51:27.220Z,28.67
2018-11-04T22:53:55.212Z,28.10
2018-11-04T22:56:22.887Z,29.27
2018-11-04T22:58:50.536Z,28.50
2018-11-04T23:01:18.191Z,30.47
2018-11-04T23:03:45.817Z,26.37
2018-11-04T23:06:13.442Z,28.37
2018-11-04T23:08:41.135Z,29.50
2018-11-04T23:11:08.748Z,26.80
2018-11-04T23:13:36.426Z,27.77
2018-11-04T23:16:04.022Z,27.90
2018-11-04T23:18:31.681Z,30.17
2018-11-04T23:20:59.348Z,29.87
2018-11-04T23:23:27.001Z,29.67
2018-11-04T23:25:54.605Z,30.40
2018-11-04T23:28:22.208Z,27.40
2018-11-04T23:30:49.827Z,29.10
2018-11-04T23:33:17.422Z,28.93
2018-11-04T23:35:45.047Z,31.57
2018-11-04T23:38:12.685Z,31.90
2018-11-04T23:40:40.297Z,29.77
2018-11-04T23:43:07.940Z,32.97
2018-11-04T23:45:35.595Z,31.03
2018-11-04T23:48:03.227Z,33.10
2018-11-04T23:50:30.917Z,31.97
2018-11-04T23:52:58.591Z,32.60
2018-11-04T23:55:26.310Z,32.30
2018-11-04T23:57:53.900Z,30.43
